Time;durP1;ratioP1;P1;durP2;ratioP2;P2;SDS_P1;SDS_P2;PMS_P1;PMS_P2;Temp;Humidity;BMP_temperature;BMP_pressure;BME280_temperature;BME280_humidity;BME280_pressure;Samples;Min_cycle;Max_cycle;Signal;HPM_P1;HPM_P2
2022/03/22 00:01:50;;;;;;;22.48;13.10;;;3.40;57.60;;;;;;5015131;28;20532;-65
2022/03/22 00:04:16;;;;;;;21.17;12.57;;;3.40;58.40;;;;;;5016928;28;20041;-65
2022/03/22 00:06:42;;;;;;;29.25;14.95;;;3.30;57.60;;;;;;5019756;28;20037;-65
2022/03/22 00:09:08;;;;;;;25.23;14.45;;;3.30;57.70;;;;;;5017911;28;20443;-65
2022/03/22 00:11:34;;;;;;;24.80;13.60;;;3.30;57.70;;;;;;5019504;28;20044;-66
2022/03/22 00:14:00;;;;;;;23.27;13.15;;;3.20;57.70;;;;;;5018090;28;20564;-65
2022/03/22 00:16:26;;;;;;;20.45;12.40;;;3.20;57.70;;;;;;5019644;28;20044;-66
2022/03/22 00:18:51;;;;;;;20.25;12.70;;;3.20;57.80;;;;;;5019869;28;20033;-65
2022/03/22 00:21:19;;;;;;;22.00;12.80;;;3.20;57.80;;;;;;5022729;28;20638;-65
2022/03/22 00:23:48;;;;;;;22.42;12.88;;;3.10;57.90;;;;;;5023637;28;20029;-65
2022/03/22 00:26:14;;;;;;;24.40;12.77;;;3.10;58.00;;;;;;5020357;28;20424;-65
2022/03/22 00:28:40;;;;;;;21.88;12.85;;;3.10;58.00;;;;;;5015695;28;20037;-66
2022/03/22 00:31:07;;;;;;;20.00;11.70;;;3.10;58.20;;;;;;5019921;28;20521;-65
2022/03/22 00:33:32;;;;;;;24.30;12.68;;;3.10;58.30;;;;;;5017407;28;20032;-65
2022/03/22 00:35:59;;;;;;;21.30;12.27;;;3.00;58.20;;;;;;5019940;28;20034;-65
2022/03/22 00:38:26;;;;;;;21.23;11.98;;;3.00;58.20;;;;;;5016375;28;20034;-65
2022/03/22 00:40:52;;;;;;;19.92;12.32;;;3.00;58.30;;;;;;5018743;28;20055;-65
2022/03/22 00:43:18;;;;;;;21.48;12.27;;;3.00;58.30;;;;;;5014722;28;20033;-65
2022/03/22 00:45:44;;;;;;;21.08;12.57;;;2.90;58.30;;;;;;5024943;28;20079;-65
2022/03/22 00:48:14;;;;;;;18.88;11.23;;;2.90;58.40;;;;;;5014554;28;20456;-65
2022/03/22 00:50:44;;;;;;;20.70;11.52;;;2.90;58.40;;;;;;5015435;28;20388;-65
2022/03/22 00:53:12;;;;;;;19.15;11.10;;;2.90;58.60;;;;;;5021491;28;20522;-66
2022/03/22 00:55:40;;;;;;;22.98;12.55;;;2.90;58.50;;;;;;5022494;28;20554;-66
2022/03/22 00:58:05;;;;;;;20.75;11.85;;;2.90;58.50;;;;;;5017416;28;20519;-65
2022/03/22 01:00:31;;;;;;;19.05;11.70;;;2.90;58.50;;;;;;5015185;28;20034;-64
2022/03/22 01:02:59;;;;;;;24.40;12.20;;;2.90;58.60;;;;;;5021486;28;20124;-65
2022/03/22 01:05:28;;;;;;;21.55;11.80;;;2.90;58.70;;;;;;5015869;28;20509;-65
2022/03/22 01:07:56;;;;;;;18.58;11.75;;;2.90;59.50;;;;;;5021033;28;20566;-66
2022/03/22 01:10:23;;;;;;;19.77;11.90;;;2.90;58.70;;;;;;5014462;28;20049;-65
2022/03/22 01:12:49;;;;;;;19.70;11.73;;;2.90;58.70;;;;;;5014471;28;20042;-64
2022/03/22 01:15:19;;;;;;;21.35;12.90;;;2.90;58.80;;;;;;5014406;28;20037;-66
2022/03/22 01:17:55;;;;;;;18.88;12.35;;;2.90;58.90;;;;;;5019477;28;20049;-65
2022/03/22 01:20:25;;;;;;;21.08;12.35;;;2.80;58.90;;;;;;5019329;28;20129;-65
2022/03/22 01:22:52;;;;;;;23.30;12.48;;;2.90;58.80;;;;;;5022354;28;20036;-65
2022/03/22 01:25:20;;;;;;;19.73;11.93;;;2.80;59.50;;;;;;5016818;28;20662;-66
2022/03/22 01:27:47;;;;;;;21.13;11.70;;;2.80;58.90;;;;;;5021879;28;20033;-66
2022/03/22 01:30:19;;;;;;;20.20;11.73;;;2.80;58.90;;;;;;5011323;28;20103;-65
2022/03/22 01:32:45;;;;;;;19.75;11.65;;;2.80;59.00;;;;;;5013369;28;20497;-66
2022/03/22 01:35:11;;;;;;;21.52;12.02;;;2.80;59.60;;;;;;5021785;28;20041;-65
2022/03/22 01:37:38;;;;;;;21.42;11.98;;;2.80;58.90;;;;;;5016093;28;20040;-65
2022/03/22 01:40:07;;;;;;;19.27;11.82;;;2.80;58.90;;;;;;5020305;28;20037;-66
2022/03/22 01:42:33;;;;;;;21.20;12.20;;;2.80;58.80;;;;;;5019923;28;20030;-66
2022/03/22 01:44:59;;;;;;;20.45;11.82;;;2.80;58.90;;;;;;5018523;28;20087;-66
2022/03/22 01:47:25;;;;;;;20.02;11.77;;;2.80;58.90;;;;;;5016136;28;20487;-66
2022/03/22 01:49:51;;;;;;;22.50;12.18;;;2.80;58.80;;;;;;5018891;28;20563;-65
2022/03/22 01:52:19;;;;;;;21.27;12.27;;;2.80;58.80;;;;;;5011812;28;20124;-65
2022/03/22 01:54:50;;;;;;;19.23;12.43;;;2.70;58.90;;;;;;5018248;28;20116;-65
2022/03/22 01:57:19;;;;;;;19.75;11.75;;;2.70;58.90;;;;;;5019887;28;20030;-65
2022/03/22 01:59:45;;;;;;;20.02;11.55;;;2.70;59.00;;;;;;5018129;28;20037;-66
2022/03/22 02:07:44;;;;;;;19.67;11.65;;;2.60;59.00;;;;;;5014825;28;20068;-66
2022/03/22 02:10:10;;;;;;;17.20;10.70;;;2.50;59.00;;;;;;5013030;28;20053;-66
2022/03/22 02:12:35;;;;;;;20.10;12.05;;;2.50;59.00;;;;;;5009521;28;21202;-66
2022/03/22 02:15:01;;;;;;;20.25;12.13;;;2.50;59.10;;;;;;5019370;28;20771;-66
2022/03/22 02:17:27;;;;;;;23.73;12.05;;;2.40;59.10;;;;;;5013618;28;20045;-66
2022/03/22 02:19:54;;;;;;;24.08;12.13;;;2.40;59.30;;;;;;5014333;28;20544;-65
2022/03/22 02:22:25;;;;;;;19.08;11.65;;;2.40;59.90;;;;;;5014356;28;20053;-65
2022/03/22 02:24:50;;;;;;;20.60;11.93;;;2.30;59.30;;;;;;5013581;28;20599;-64
2022/03/22 02:27:16;;;;;;;22.45;12.50;;;2.30;59.40;;;;;;5022601;28;20049;-65
2022/03/22 02:29:43;;;;;;;22.02;12.50;;;2.30;59.50;;;;;;5018304;28;20128;-66
2022/03/22 02:32:09;;;;;;;19.85;12.43;;;2.30;59.50;;;;;;5015237;28;20030;-66
2022/03/22 02:34:39;;;;;;;23.42;12.18;;;2.30;59.60;;;;;;5014775;28;20052;-66
2022/03/22 02:37:05;;;;;;;21.10;12.27;;;2.20;59.70;;;;;;5015953;28;20068;-65
2022/03/22 02:39:34;;;;;;;22.55;11.55;;;2.20;59.50;;;;;;5015249;28;20041;-64
2022/03/22 02:42:00;;;;;;;18.88;12.18;;;2.20;59.80;;;;;;5017439;28;20417;-65
2022/03/22 02:44:26;;;;;;;20.05;11.88;;;2.20;59.80;;;;;;5011692;28;20025;-65
2022/03/22 02:46:52;;;;;;;19.90;11.32;;;2.20;59.90;;;;;;5021852;28;20037;-66
2022/03/22 02:49:18;;;;;;;20.95;11.88;;;2.20;59.80;;;;;;5016142;28;20061;-65
2022/03/22 02:51:44;;;;;;;25.33;13.07;;;2.20;60.00;;;;;;5014469;28;20033;-65
2022/03/22 02:54:09;;;;;;;23.42;12.85;;;2.00;59.90;;;;;;5017939;28;20037;-66
2022/03/22 02:56:35;;;;;;;25.75;13.05;;;2.10;60.20;;;;;;5011085;28;20038;-66
2022/03/22 02:59:01;;;;;;;26.25;14.02;;;2.10;60.40;;;;;;5015571;28;20045;-66
2022/03/22 03:01:27;;;;;;;21.20;12.40;;;2.10;60.40;;;;;;5014812;28;20026;-64
2022/03/22 03:03:53;;;;;;;25.00;12.93;;;2.00;60.40;;;;;;5015809;28;20569;-65
2022/03/22 03:06:19;;;;;;;23.65;13.05;;;2.00;60.50;;;;;;5015193;28;20528;-64
2022/03/22 03:08:44;;;;;;;21.52;12.30;;;1.90;60.70;;;;;;5014811;28;20303;-65
2022/03/22 03:11:12;;;;;;;21.52;12.65;;;1.90;60.70;;;;;;5015023;28;20041;-65
2022/03/22 03:16:22;;;;;;;23.93;13.13;;;1.90;60.80;;;;;;5017221;28;20057;-65
2022/03/22 03:18:51;;;;;;;25.05;13.50;;;1.90;60.90;;;;;;5010987;28;20288;-65
2022/03/22 03:21:17;;;;;;;23.45;12.68;;;1.90;61.00;;;;;;5017222;28;20077;-65
2022/03/22 03:23:42;;;;;;;23.50;12.60;;;1.90;60.90;;;;;;5013395;28;20037;-65
2022/03/22 03:26:08;;;;;;;25.02;13.07;;;1.90;60.80;;;;;;5016264;28;20447;-66
2022/03/22 03:28:34;;;;;;;22.08;12.75;;;1.90;60.70;;;;;;5013270;28;20117;-65
2022/03/22 03:30:59;;;;;;;24.10;13.73;;;1.90;60.80;;;;;;5010870;28;20476;-65
2022/03/22 03:33:25;;;;;;;21.95;13.15;;;1.80;60.70;;;;;;5014886;28;20140;-63
2022/03/22 03:35:51;;;;;;;21.42;12.93;;;1.90;60.80;;;;;;5013692;28;20063;-65
2022/03/22 03:38:16;;;;;;;21.42;12.88;;;1.80;60.90;;;;;;5013880;28;20486;-66
2022/03/22 03:43:26;;;;;;;22.40;12.67;;;1.80;61.00;;;;;;5019311;28;20578;-65
2022/03/22 03:48:36;;;;;;;24.13;12.95;;;1.70;61.00;;;;;;5019780;28;20096;-65
2022/03/22 03:51:01;;;;;;;24.45;12.10;;;1.70;60.90;;;;;;5014250;28;20042;-66
2022/03/22 03:53:27;;;;;;;21.77;12.60;;;1.60;60.90;;;;;;5018366;28;20034;-66
2022/03/22 03:55:52;;;;;;;25.45;13.15;;;1.70;61.10;;;;;;5021709;28;20022;-65
2022/03/22 03:58:18;;;;;;;21.27;12.30;;;1.60;61.10;;;;;;5024447;28;20033;-63
2022/03/22 04:00:43;;;;;;;23.58;13.18;;;1.70;61.20;;;;;;5026597;28;20033;-65
2022/03/22 04:03:09;;;;;;;20.52;12.50;;;1.60;61.10;;;;;;5020779;28;20132;-65
2022/03/22 04:05:35;;;;;;;24.10;13.70;;;1.60;61.30;;;;;;5020362;28;20052;-64
2022/03/22 04:08:00;;;;;;;26.38;13.73;;;1.60;61.30;;;;;;5021210;28;20049;-65
2022/03/22 04:10:26;;;;;;;25.13;14.35;;;1.60;61.30;;;;;;5014727;28;20025;-64
2022/03/22 04:12:52;;;;;;;25.52;13.82;;;1.60;61.30;;;;;;5012481;28;20033;-65
2022/03/22 04:15:18;;;;;;;23.55;13.10;;;1.60;61.30;;;;;;5019301;28;20057;-65
2022/03/22 04:17:43;;;;;;;27.20;13.68;;;1.60;61.30;;;;;;5020973;28;20030;-65
2022/03/22 04:20:10;;;;;;;24.10;13.52;;;1.60;61.20;;;;;;5017336;28;20042;-65
2022/03/22 04:22:36;;;;;;;22.45;12.93;;;1.60;61.10;;;;;;5022357;28;20048;-65
2022/03/22 04:25:02;;;;;;;25.67;13.23;;;1.60;61.10;;;;;;5028163;28;20497;-65
2022/03/22 04:32:57;;;;;;;23.70;13.23;;;1.60;61.10;;;;;;5028731;28;20064;-65
2022/03/22 04:35:27;;;;;;;30.77;12.70;;;1.60;61.00;;;;;;5025695;28;22148;-65
2022/03/22 04:37:53;;;;;;;25.92;13.50;;;1.50;61.00;;;;;;5016315;28;20025;-65
2022/03/22 04:40:20;;;;;;;21.98;13.02;;;1.50;61.10;;;;;;5015112;28;20037;-66
2022/03/22 04:42:53;;;;;;;25.38;13.95;;;1.50;61.30;;;;;;5016038;28;20037;-65
2022/03/22 04:45:19;;;;;;;29.48;13.73;;;1.40;61.20;;;;;;5017468;28;20037;-65
2022/03/22 04:47:45;;;;;;;24.58;13.65;;;1.40;61.10;;;;;;5019060;28;20053;-65
2022/03/22 04:50:12;;;;;;;26.88;13.63;;;1.40;61.10;;;;;;5022207;28;20041;-65
2022/03/22 04:58:08;;;;;;;23.60;13.35;;;1.40;61.10;;;;;;5019939;28;20542;-65
2022/03/22 05:00:34;;;;;;;26.55;13.77;;;1.40;61.30;;;;;;5002127;28;20038;-65
2022/03/22 05:03:03;;;;;;;24.35;13.90;;;1.30;61.30;;;;;;4998079;28;20041;-65
2022/03/22 05:08:14;;;;;;;22.70;12.45;;;1.20;61.70;;;;;;4996754;28;20072;-65
2022/03/22 05:10:40;;;;;;;23.52;13.48;;;1.20;61.70;;;;;;4993858;28;20038;-64
2022/03/22 05:13:06;;;;;;;24.85;14.23;;;1.20;62.00;;;;;;4996559;28;20312;-65
2022/03/22 05:15:32;;;;;;;23.55;13.98;;;1.10;62.00;;;;;;4996691;28;20062;-64
2022/03/22 05:17:58;;;;;;;22.98;13.32;;;1.10;62.20;;;;;;5003071;28;20065;-66
2022/03/22 05:20:24;;;;;;;24.92;13.90;;;1.10;62.30;;;;;;4999760;28;20063;-65
2022/03/22 05:22:49;;;;;;;22.52;13.73;;;1.00;62.30;;;;;;4993612;28;20037;-65
2022/03/22 05:25:15;;;;;;;26.90;14.00;;;1.10;62.40;;;;;;4995229;28;20030;-64
2022/03/22 05:27:41;;;;;;;25.42;13.80;;;1.10;62.30;;;;;;4997580;28;20034;-66
2022/03/22 05:30:08;;;;;;;25.00;13.40;;;1.10;62.30;;;;;;4991383;28;20037;-66
2022/03/22 05:32:34;;;;;;;22.83;13.15;;;1.10;62.30;;;;;;4987552;28;20029;-65
2022/03/22 05:34:59;;;;;;;24.95;14.02;;;1.20;62.20;;;;;;4986870;28;20617;-65
2022/03/22 05:37:25;;;;;;;23.65;13.02;;;1.20;62.10;;;;;;4991916;28;20033;-65
2022/03/22 05:39:51;;;;;;;25.58;13.90;;;1.20;62.20;;;;;;5002118;28;20554;-65
2022/03/22 05:42:16;;;;;;;24.95;13.82;;;1.20;62.30;;;;;;5002514;28;20037;-65
2022/03/22 05:44:43;;;;;;;25.65;13.30;;;1.10;62.10;;;;;;5001258;28;20038;-64
2022/03/22 05:47:10;;;;;;;25.92;14.77;;;1.10;62.20;;;;;;5002625;28;20041;-65
2022/03/22 05:49:36;;;;;;;22.52;13.77;;;1.20;62.30;;;;;;5001326;28;20524;-65
2022/03/22 05:52:03;;;;;;;27.98;13.93;;;1.10;62.30;;;;;;4998145;28;20155;-65
2022/03/22 05:54:29;;;;;;;23.75;13.52;;;1.10;62.30;;;;;;4997339;28;20552;-66
2022/03/22 05:56:55;;;;;;;25.60;13.30;;;1.10;62.50;;;;;;5000445;28;20109;-66
2022/03/22 05:59:20;;;;;;;29.88;15.77;;;1.10;62.50;;;;;;5000980;28;20121;-65
2022/03/22 06:01:46;;;;;;;27.55;15.43;;;1.10;62.50;;;;;;4999374;28;20417;-66
2022/03/22 06:04:12;;;;;;;34.22;16.25;;;1.10;62.60;;;;;;5001664;28;20038;-68
2022/03/22 06:06:39;;;;;;;32.13;17.15;;;1.10;62.90;;;;;;4999856;28;20030;-65
2022/03/22 06:09:05;;;;;;;33.15;18.05;;;1.10;63.00;;;;;;4997416;28;20049;-65
2022/03/22 06:11:35;;;;;;;33.65;16.00;;;1.10;63.30;;;;;;4996083;28;20058;-65
2022/03/22 06:14:04;;;;;;;30.30;16.13;;;1.10;63.70;;;;;;5005203;28;20058;-66
2022/03/22 06:16:30;;;;;;;26.10;15.20;;;1.10;64.00;;;;;;5004459;28;20080;-65
2022/03/22 06:18:56;;;;;;;26.83;14.13;;;1.10;64.00;;;;;;5005858;28;20125;-66
2022/03/22 06:21:22;;;;;;;31.45;14.88;;;1.10;64.10;;;;;;5006082;28;20033;-65
2022/03/22 06:23:48;;;;;;;27.52;14.63;;;1.10;64.20;;;;;;5005607;28;20111;-65
2022/03/22 06:26:14;;;;;;;32.15;15.23;;;1.10;64.40;;;;;;4998332;28;20033;-64
2022/03/22 06:28:41;;;;;;;34.45;15.98;;;1.10;64.50;;;;;;4997150;28;20494;-64
2022/03/22 06:31:06;;;;;;;32.53;15.13;;;1.20;64.50;;;;;;4995648;28;20037;-67
2022/03/22 06:33:33;;;;;;;35.70;15.00;;;1.20;64.40;;;;;;4994710;28;20030;-65
2022/03/22 06:35:59;;;;;;;33.50;14.35;;;1.30;64.40;;;;;;4995948;28;20092;-65
2022/03/22 06:38:25;;;;;;;36.35;14.52;;;1.30;64.40;;;;;;5000518;28;20069;-66
2022/03/22 06:40:51;;;;;;;35.47;14.63;;;1.40;64.40;;;;;;4995702;28;20136;-65
2022/03/22 06:43:18;;;;;;;32.58;15.73;;;1.50;64.40;;;;;;5000263;28;20454;-64
2022/03/22 06:45:45;;;;;;;23.17;13.10;;;1.60;64.50;;;;;;5002428;28;20483;-65
2022/03/22 06:48:12;;;;;;;31.42;15.27;;;1.60;64.50;;;;;;5002874;28;20037;-65
2022/03/22 06:50:39;;;;;;;32.60;16.20;;;1.70;64.40;;;;;;5001982;28;20472;-64
2022/03/22 06:53:06;;;;;;;32.88;15.82;;;1.80;64.40;;;;;;4999331;28;20068;-65
2022/03/22 06:55:32;;;;;;;37.15;17.15;;;1.90;64.60;;;;;;5000057;28;20076;-64
2022/03/22 06:57:59;;;;;;;35.10;18.17;;;1.90;64.50;;;;;;5000212;28;20038;-65
2022/03/22 07:00:28;;;;;;;37.78;19.88;;;2.00;64.60;;;;;;5001152;28;20040;-66
2022/03/22 07:02:55;;;;;;;36.35;20.02;;;2.10;64.60;;;;;;5004922;28;20094;-65
2022/03/22 07:05:21;;;;;;;25.55;15.30;;;2.20;64.60;;;;;;5022823;28;20119;-64
2022/03/22 07:07:47;;;;;;;33.78;16.85;;;2.20;64.40;;;;;;5020571;28;20476;-65
2022/03/22 07:10:14;;;;;;;36.10;17.15;;;2.30;64.20;;;;;;5016524;28;21205;-65
2022/03/22 07:12:47;;;;;;;27.52;15.50;;;2.40;64.20;;;;;;5010919;28;20260;-64
2022/03/22 07:15:13;;;;;;;30.52;15.68;;;2.50;64.30;;;;;;5020574;28;20038;-65
2022/03/22 07:17:40;;;;;;;31.95;16.48;;;2.50;63.90;;;;;;5025264;28;20456;-65
2022/03/22 07:20:07;;;;;;;28.50;16.40;;;2.70;63.70;;;;;;5021371;28;20038;-65
2022/03/22 07:22:32;;;;;;;28.05;15.13;;;2.70;63.50;;;;;;5021708;28;20508;-64
2022/03/22 07:24:58;;;;;;;29.27;15.57;;;2.80;63.30;;;;;;5023010;28;20060;-65
2022/03/22 07:27:24;;;;;;;24.85;14.85;;;3.00;63.30;;;;;;5022194;28;20037;-65
2022/03/22 07:29:51;;;;;;;25.23;14.65;;;3.10;63.20;;;;;;5019274;28;20034;-65
2022/03/22 07:32:17;;;;;;;23.35;14.82;;;3.10;63.00;;;;;;5020906;28;20484;-64
2022/03/22 07:34:43;;;;;;;28.13;14.70;;;3.20;62.90;;;;;;5020192;28;20117;-65
2022/03/22 07:37:08;;;;;;;26.80;15.23;;;3.30;62.90;;;;;;5018811;28;20096;-65
2022/03/22 07:39:35;;;;;;;27.98;15.35;;;3.40;62.60;;;;;;5020633;28;20141;-65
2022/03/22 07:42:01;;;;;;;25.63;14.98;;;3.50;62.60;;;;;;5020791;28;20036;-65
2022/03/22 07:44:27;;;;;;;26.23;15.10;;;3.60;62.50;;;;;;5021315;28;20049;-65
2022/03/22 07:46:53;;;;;;;27.65;14.75;;;3.70;62.60;;;;;;5023943;28;20037;-64
2022/03/22 07:54:47;;;;;;;27.33;14.85;;;3.90;62.60;;;;;;5020948;28;20449;-65
2022/03/22 07:57:13;;;;;;;25.02;14.55;;;4.00;62.30;;;;;;5022437;28;20630;-65
2022/03/22 07:59:38;;;;;;;25.58;14.63;;;4.10;62.10;;;;;;5022832;28;20041;-64
2022/03/22 08:02:04;;;;;;;28.63;15.35;;;4.20;62.10;;;;;;5018388;28;20034;-65
2022/03/22 08:04:30;;;;;;;28.92;16.48;;;4.30;62.00;;;;;;5020409;28;20504;-64
2022/03/22 08:06:56;;;;;;;27.33;15.75;;;4.40;62.00;;;;;;5019224;28;20033;-64
2022/03/22 08:09:21;;;;;;;31.15;16.73;;;4.50;61.80;;;;;;5020427;28;20041;-66
2022/03/22 08:11:48;;;;;;;26.80;16.15;;;4.60;61.70;;;;;;5016231;28;20100;-65
2022/03/22 08:14:14;;;;;;;29.40;17.27;;;4.70;61.60;;;;;;5022716;28;20588;-65
2022/03/22 08:16:41;;;;;;;25.95;16.27;;;4.70;61.60;;;;;;5024860;28;20235;-65
2022/03/22 08:19:07;;;;;;;26.63;17.02;;;4.80;61.60;;;;;;5025012;28;20068;-65
2022/03/22 08:21:34;;;;;;;33.75;17.52;;;4.90;62.30;;;;;;5025917;28;20116;-65
2022/03/22 08:24:00;;;;;;;28.80;16.58;;;5.00;61.60;;;;;;5027131;28;20033;-65
2022/03/22 08:26:27;;;;;;;29.42;16.63;;;5.10;61.50;;;;;;5027499;28;20029;-65
2022/03/22 08:28:56;;;;;;;26.25;16.10;;;5.20;61.30;;;;;;5028581;28;20049;-65
2022/03/22 08:31:21;;;;;;;27.27;16.27;;;5.30;61.30;;;;;;5027637;28;20064;-65
2022/03/22 08:33:47;;;;;;;25.63;16.00;;;5.40;61.10;;;;;;5027591;28;20025;-65
2022/03/22 08:36:13;;;;;;;26.73;15.93;;;5.60;61.10;;;;;;5026746;28;20057;-65
2022/03/22 08:38:38;;;;;;;28.63;16.98;;;5.60;60.90;;;;;;5028246;28;20060;-65
2022/03/22 08:41:04;;;;;;;29.15;17.75;;;5.70;60.90;;;;;;5025463;28;20108;-65
2022/03/22 08:43:30;;;;;;;28.52;16.55;;;5.80;61.80;;;;;;5023847;28;20134;-65
2022/03/22 08:45:56;;;;;;;30.00;17.02;;;5.90;60.70;;;;;;5019136;28;20509;-65
2022/03/22 08:48:22;;;;;;;32.97;18.02;;;6.00;60.80;;;;;;5022961;28;20496;-65
2022/03/22 08:50:50;;;;;;;26.23;16.25;;;6.10;60.60;;;;;;5019939;28;20382;-65
2022/03/22 08:53:17;;;;;;;29.75;17.65;;;6.20;60.40;;;;;;5024020;28;20034;-65
2022/03/22 08:55:44;;;;;;;26.88;17.30;;;6.30;61.10;;;;;;5024067;28;20043;-67
2022/03/22 08:58:10;;;;;;;26.90;16.60;;;6.40;59.90;;;;;;5021482;28;21015;-66
2022/03/22 09:00:36;;;;;;;27.63;16.45;;;6.50;59.80;;;;;;5020727;28;20051;-66
2022/03/22 09:03:04;;;;;;;25.40;16.40;;;6.60;59.80;;;;;;5015225;28;20034;-65
2022/03/22 09:08:15;;;;;;;24.45;15.60;;;6.90;59.80;;;;;;5024506;28;20044;-65
2022/03/22 09:10:41;;;;;;;26.88;16.60;;;7.00;59.60;;;;;;5020365;28;20393;-65
2022/03/22 09:13:08;;;;;;;27.17;15.95;;;7.10;59.50;;;;;;5023144;28;20143;-65
2022/03/22 09:15:39;;;;;;;25.73;16.92;;;7.20;59.20;;;;;;5023697;28;20037;-66
2022/03/22 09:18:12;;;;;;;26.83;16.38;;;7.30;59.00;;;;;;5028696;28;20160;-66
2022/03/22 09:20:38;;;;;;;24.20;15.00;;;7.50;59.00;;;;;;5026600;28;20056;-64
2022/03/22 09:23:04;;;;;;;24.02;15.15;;;7.60;58.80;;;;;;5022024;28;20042;-66
2022/03/22 09:25:29;;;;;;;22.75;15.15;;;7.80;58.70;;;;;;5023159;28;20036;-65
2022/03/22 09:27:56;;;;;;;24.70;15.65;;;7.90;58.60;;;;;;5022317;28;20041;-66
2022/03/22 09:30:22;;;;;;;24.13;16.50;;;8.00;58.20;;;;;;5021990;28;20033;-64
2022/03/22 09:32:48;;;;;;;25.67;16.80;;;8.20;58.00;;;;;;5021838;28;20098;-66
2022/03/22 09:35:17;;;;;;;23.17;15.93;;;8.30;57.70;;;;;;5022729;28;20051;-66
2022/03/22 09:37:43;;;;;;;26.27;15.63;;;8.40;57.50;;;;;;5022710;28;20037;-66
2022/03/22 09:40:11;;;;;;;26.85;17.10;;;8.50;57.50;;;;;;5022775;28;20033;-66
2022/03/22 09:42:42;;;;;;;27.60;16.98;;;8.60;57.30;;;;;;5020502;28;20256;-66
2022/03/22 09:45:09;;;;;;;24.58;16.92;;;8.70;57.10;;;;;;5022681;28;20456;-67
2022/03/22 09:47:36;;;;;;;27.42;16.50;;;8.80;56.90;;;;;;5023579;28;20109;-66
2022/03/22 09:50:09;;;;;;;27.00;16.45;;;8.90;56.80;;;;;;5021881;28;20056;-65
2022/03/22 09:52:35;;;;;;;24.20;15.77;;;8.90;56.70;;;;;;5021974;28;20558;-65
2022/03/22 09:55:02;;;;;;;26.75;16.13;;;9.00;56.60;;;;;;5023591;28;20061;-65
2022/03/22 09:57:28;;;;;;;23.70;16.02;;;9.10;56.60;;;;;;5025783;28;20025;-66
2022/03/22 09:59:54;;;;;;;26.55;16.15;;;9.20;56.40;;;;;;5025587;28;20028;-65
2022/03/22 10:02:30;;;;;;;23.77;15.90;;;9.30;56.20;;;;;;5020804;28;20091;-66
2022/03/22 10:04:56;;;;;;;23.90;15.02;;;9.40;56.00;;;;;;5027498;28;20045;-66
2022/03/22 10:07:23;;;;;;;26.23;15.48;;;9.50;56.10;;;;;;5023881;28;20099;-65
2022/03/22 10:09:56;;;;;;;25.63;15.20;;;9.60;56.10;;;;;;5026114;28;20038;-66
2022/03/22 10:12:29;;;;;;;24.00;15.25;;;9.70;56.00;;;;;;5018566;28;20033;-66
2022/03/22 10:15:05;;;;;;;25.75;15.02;;;9.80;55.90;;;;;;5025072;28;20037;-65
2022/03/22 10:17:31;;;;;;;23.50;15.80;;;10.00;55.70;;;;;;5025653;28;20061;-66
2022/03/22 10:19:56;;;;;;;25.42;16.30;;;10.10;55.60;;;;;;5024677;28;20172;-64
2022/03/22 10:22:24;;;;;;;24.15;15.13;;;10.20;55.10;;;;;;5008426;28;20037;-66
2022/03/22 10:24:52;;;;;;;23.77;14.98;;;10.30;55.10;;;;;;5006412;28;20640;-66
2022/03/22 10:27:32;;;;;;;20.25;14.07;;;10.40;55.00;;;;;;5004336;28;20030;-67
2022/03/22 10:30:00;;;;;;;22.05;14.63;;;10.50;54.90;;;;;;5004072;28;20030;-66
2022/03/22 10:32:39;;;;;;;23.35;15.95;;;10.70;54.40;;;;;;4999032;28;20063;-66
2022/03/22 10:35:14;;;;;;;24.15;15.13;;;10.80;53.40;;;;;;5002381;28;20153;-66
2022/03/22 10:37:47;;;;;;;;;;;10.90;53.00;;;;;;5000920;28;20084;-65
2022/03/22 10:40:26;;;;;;;23.88;14.35;;;11.00;53.10;;;;;;5002070;28;20371;-66
2022/03/22 10:42:54;;;;;;;24.02;15.05;;;11.10;53.10;;;;;;4999506;28;20371;-65
2022/03/22 10:45:20;;;;;;;22.25;14.98;;;11.20;53.30;;;;;;5008301;28;20034;-66
2022/03/22 10:47:46;;;;;;;22.83;14.90;;;11.30;53.00;;;;;;5018727;28;20160;-66
2022/03/22 10:50:12;;;;;;;21.17;14.43;;;11.40;52.80;;;;;;5018048;28;20570;-66
2022/03/22 10:52:52;;;;;;;23.27;14.48;;;11.50;52.60;;;;;;5018581;28;20029;-65
2022/03/22 10:55:21;;;;;;;20.88;12.73;;;11.70;52.20;;;;;;5019440;28;20408;-66
2022/03/22 10:57:53;;;;;;;20.23;13.25;;;11.70;52.70;;;;;;5017382;28;20056;-65
2022/03/22 11:00:20;;;;;;;23.98;14.27;;;11.90;52.10;;;;;;5011804;28;20041;-65
2022/03/22 11:02:49;;;;;;;24.30;14.45;;;12.00;51.30;;;;;;5011558;28;20049;-66
2022/03/22 11:05:15;;;;;;;21.30;14.45;;;12.10;50.90;;;;;;5024770;28;20400;-66
2022/03/22 11:07:42;;;;;;;19.13;13.55;;;12.20;51.90;;;;;;5026011;28;20125;-65
2022/03/22 11:10:08;;;;;;;21.40;13.63;;;12.30;51.20;;;;;;5023573;28;20032;-65
2022/03/22 11:12:34;;;;;;;19.42;13.27;;;12.40;50.60;;;;;;5017401;28;20034;-65
2022/03/22 11:15:02;;;;;;;20.45;13.88;;;12.50;50.40;;;;;;5025546;28;20037;-66
2022/03/22 11:17:36;;;;;;;18.88;13.40;;;12.60;48.60;;;;;;5025887;28;20655;-66
2022/03/22 11:20:06;;;;;;;22.48;14.00;;;12.60;48.50;;;;;;5018136;28;20045;-65
2022/03/22 11:22:32;;;;;;;22.50;13.07;;;12.70;48.10;;;;;;5024151;28;20524;-65
2022/03/22 11:25:12;;;;;;;21.73;12.73;;;12.80;48.60;;;;;;5023488;28;20037;-66
2022/03/22 11:27:39;;;;;;;16.48;12.05;;;12.90;47.80;;;;;;5023721;28;20044;-66
2022/03/22 11:30:07;;;;;;;19.38;12.43;;;13.10;48.60;;;;;;5022567;28;20038;-66
2022/03/22 11:35:18;;;;;;;;;;;13.20;46.70;;;;;;5019256;28;20793;-66
2022/03/22 11:37:55;;;;;;;19.20;11.50;;;13.30;46.70;;;;;;5022364;28;19921;-66
2022/03/22 11:43:11;;;;;;;20.48;12.05;;;13.50;46.40;;;;;;5018777;28;20044;-66
2022/03/22 11:45:50;;;;;;;18.75;11.55;;;13.50;46.00;;;;;;5021992;28;20092;-66
2022/03/22 11:48:17;;;;;;;18.17;11.55;;;13.60;44.70;;;;;;5021608;28;20124;-67
2022/03/22 11:50:44;;;;;;;16.50;11.23;;;13.70;45.30;;;;;;5021078;28;20040;-66
2022/03/22 11:53:18;;;;;;;14.55;10.63;;;13.80;45.60;;;;;;5020568;28;20052;-66
2022/03/22 11:55:47;;;;;;;15.30;10.45;;;13.90;45.00;;;;;;5024137;28;20109;-66
2022/03/22 11:58:13;;;;;;;17.65;11.73;;;13.90;45.20;;;;;;5020746;28;20043;-66
2022/03/22 12:00:46;;;;;;;17.40;10.43;;;14.00;45.00;;;;;;5020014;28;20485;-66
2022/03/22 12:03:14;;;;;;;13.75;10.15;;;14.10;44.90;;;;;;5021249;28;20030;-66
2022/03/22 12:05:40;;;;;;;14.77;10.73;;;14.20;44.60;;;;;;5024658;28;20033;-66
2022/03/22 12:08:07;;;;;;;17.50;10.65;;;14.30;43.50;;;;;;5023869;28;20025;-66
2022/03/22 12:10:33;;;;;;;14.75;9.82;;;14.40;43.00;;;;;;5021576;28;20037;-65
2022/03/22 12:12:58;;;;;;;14.48;9.52;;;14.40;42.60;;;;;;5021396;28;20520;-65
2022/03/22 12:15:24;;;;;;;14.15;9.40;;;14.50;42.70;;;;;;5024672;28;20404;-67
2022/03/22 12:17:51;;;;;;;13.15;9.07;;;14.60;42.60;;;;;;5021588;28;20451;-66
2022/03/22 12:20:20;;;;;;;11.48;8.40;;;14.70;41.20;;;;;;5021643;28;20124;-66
2022/03/22 12:22:55;;;;;;;14.20;9.55;;;14.80;40.30;;;;;;5023029;28;20034;-66
2022/03/22 12:25:23;;;;;;;14.05;9.88;;;14.80;40.00;;;;;;5023226;28;20025;-65
2022/03/22 12:28:02;;;;;;;14.05;9.23;;;14.90;40.50;;;;;;5019438;28;20614;-66
2022/03/22 12:30:39;;;;;;;13.00;10.07;;;15.00;39.90;;;;;;5020458;28;20040;-66
2022/03/22 12:33:13;;;;;;;11.38;8.45;;;15.00;38.50;;;;;;5024294;28;20566;-66
2022/03/22 12:35:39;;;;;;;14.50;8.50;;;15.00;38.00;;;;;;5021934;28;20041;-66
2022/03/22 12:38:05;;;;;;;11.65;8.48;;;15.10;37.70;;;;;;5023095;28;20072;-66
2022/03/22 12:40:32;;;;;;;11.80;8.63;;;15.10;38.50;;;;;;5020273;28;20033;-66
2022/03/22 12:42:58;;;;;;;11.27;8.25;;;15.20;38.50;;;;;;5026829;28;20570;-65
2022/03/22 12:45:26;;;;;;;12.57;8.73;;;15.20;38.90;;;;;;5025163;28;20420;-66
2022/03/22 12:47:53;;;;;;;14.00;9.23;;;15.30;37.50;;;;;;5022901;28;20026;-66
2022/03/22 12:50:20;;;;;;;9.57;7.50;;;15.30;37.80;;;;;;5019919;28;20087;-66
2022/03/22 12:52:47;;;;;;;9.70;7.35;;;15.40;37.90;;;;;;5021308;28;20560;-66
2022/03/22 12:55:16;;;;;;;9.80;7.82;;;15.40;38.10;;;;;;5024532;28;20045;-66
2022/03/22 12:57:46;;;;;;;11.07;7.97;;;15.40;36.30;;;;;;5014223;28;20128;-67
2022/03/22 13:00:39;;;;;;;10.48;7.13;;;15.50;36.80;;;;;;5022321;28;20535;-66
2022/03/22 13:03:10;;;;;;;9.40;6.32;;;15.50;36.90;;;;;;5019143;28;20465;-66
2022/03/22 13:05:47;;;;;;;8.77;6.68;;;15.60;34.80;;;;;;5023268;28;20033;-65
2022/03/22 13:08:27;;;;;;;9.43;6.75;;;15.60;34.50;;;;;;5024283;28;20033;-64
2022/03/22 13:16:35;;;;;;;11.27;7.30;;;15.70;36.20;;;;;;5002737;28;20058;-66
2022/03/22 13:19:02;;;;;;;11.88;8.07;;;15.70;36.20;;;;;;5014136;28;20030;-66
2022/03/22 13:21:30;;;;;;;11.98;7.57;;;15.70;35.60;;;;;;5000617;28;20108;-66
2022/03/22 13:24:04;;;;;;;11.40;7.90;;;15.70;34.90;;;;;;4996010;28;20034;-66